sensor_id;sensor_type;location;lat;lon;timestamp;temperature;humidity
41644;DHT22;44236;48.098;11.582;2023-06-01T00:02:02;22.30;48.90
41644;DHT22;44236;48.098;11.582;2023-06-01T00:04:28;22.20;48.90
41644;DHT22;44236;48.098;11.582;2023-06-01T00:06:53;22.20;48.90
41644;DHT22;44236;48.098;11.582;2023-06-01T00:09:19;22.20;48.90
41644;DHT22;44236;48.098;11.582;2023-06-01T00:11:44;22.20;49.00
41644;DHT22;44236;48.098;11.582;2023-06-01T00:14:10;22.20;48.90
41644;DHT22;44236;48.098;11.582;2023-06-01T00:16:35;22.20;48.90
41644;DHT22;44236;48.098;11.582;2023-06-01T00:19:02;22.20;48.90
41644;DHT22;44236;48.098;11.582;2023-06-01T00:21:29;22.20;48.90
41644;DHT22;44236;48.098;11.582;2023-06-01T00:23:57;22.20;48.90
41644;DHT22;44236;48.098;11.582;2023-06-01T00:26:23;22.20;48.90
41644;DHT22;44236;48.098;11.582;2023-06-01T00:28:49;22.20;49.00
41644;DHT22;44236;48.098;11.582;2023-06-01T00:31:14;22.20;49.00
41644;DHT22;44236;48.098;11.582;2023-06-01T00:33:40;22.20;48.90
41644;DHT22;44236;48.098;11.582;2023-06-01T00:36:06;22.20;48.90
41644;DHT22;44236;48.098;11.582;2023-06-01T00:38:32;22.20;49.00
41644;DHT22;44236;48.098;11.582;2023-06-01T00:40:57;22.20;49.00
41644;DHT22;44236;48.098;11.582;2023-06-01T00:43:23;22.20;49.00
41644;DHT22;44236;48.098;11.582;2023-06-01T00:45:48;22.20;49.00
41644;DHT22;44236;48.098;11.582;2023-06-01T00:48:15;22.20;49.00
41644;DHT22;44236;48.098;11.582;2023-06-01T00:50:42;22.20;49.00
41644;DHT22;44236;48.098;11.582;2023-06-01T00:53:14;22.20;48.90
41644;DHT22;44236;48.098;11.582;2023-06-01T00:55:41;22.20;48.90
41644;DHT22;44236;48.098;11.582;2023-06-01T00:58:07;22.20;49.00
41644;DHT22;44236;48.098;11.582;2023-06-01T01:00:33;22.20;49.00
41644;DHT22;44236;48.098;11.582;2023-06-01T01:02:58;22.20;49.00
41644;DHT22;44236;48.098;11.582;2023-06-01T01:05:26;22.20;49.00
41644;DHT22;44236;48.098;11.582;2023-06-01T01:08:07;22.20;49.00
41644;DHT22;44236;48.098;11.582;2023-06-01T01:10:41;22.20;49.00
41644;DHT22;44236;48.098;11.582;2023-06-01T01:13:10;22.20;49.00
41644;DHT22;44236;48.098;11.582;2023-06-01T01:15:45;22.20;49.00
41644;DHT22;44236;48.098;11.582;2023-06-01T01:18:16;22.20;49.00
41644;DHT22;44236;48.098;11.582;2023-06-01T01:20:52;22.20;49.00
41644;DHT22;44236;48.098;11.582;2023-06-01T01:29:09;22.10;49.00
41644;DHT22;44236;48.098;11.582;2023-06-01T01:31:38;22.10;49.00
41644;DHT22;44236;48.098;11.582;2023-06-01T01:34:06;22.10;49.00
41644;DHT22;44236;48.098;11.582;2023-06-01T01:36:33;22.10;49.00
41644;DHT22;44236;48.098;11.582;2023-06-01T01:38:59;22.10;48.90
41644;DHT22;44236;48.098;11.582;2023-06-01T01:41:24;22.10;49.00
41644;DHT22;44236;48.098;11.582;2023-06-01T01:43:51;22.10;49.00
41644;DHT22;44236;48.098;11.582;2023-06-01T01:46:28;22.10;49.00
41644;DHT22;44236;48.098;11.582;2023-06-01T01:49:07;22.10;49.00
41644;DHT22;44236;48.098;11.582;2023-06-01T01:54:28;22.10;49.10
41644;DHT22;44236;48.098;11.582;2023-06-01T01:56:57;22.10;49.10
41644;DHT22;44236;48.098;11.582;2023-06-01T01:59:23;22.10;49.00
41644;DHT22;44236;48.098;11.582;2023-06-01T02:01:50;22.10;49.10
41644;DHT22;44236;48.098;11.582;2023-06-01T02:04:15;22.10;49.10
41644;DHT22;44236;48.098;11.582;2023-06-01T02:06:41;22.10;49.00
41644;DHT22;44236;48.098;11.582;2023-06-01T02:09:06;22.10;49.00
41644;DHT22;44236;48.098;11.582;2023-06-01T02:11:36;22.10;49.00
41644;DHT22;44236;48.098;11.582;2023-06-01T02:14:01;22.10;49.10
41644;DHT22;44236;48.098;11.582;2023-06-01T02:16:27;22.10;49.50
41644;DHT22;44236;48.098;11.582;2023-06-01T02:18:52;22.10;49.10
41644;DHT22;44236;48.098;11.582;2023-06-01T02:21:19;22.10;49.10
41644;DHT22;44236;48.098;11.582;2023-06-01T02:23:44;22.10;49.10
41644;DHT22;44236;48.098;11.582;2023-06-01T02:26:11;22.10;49.10
41644;DHT22;44236;48.098;11.582;2023-06-01T02:28:37;22.00;49.00
41644;DHT22;44236;48.098;11.582;2023-06-01T02:31:04;22.00;49.10
41644;DHT22;44236;48.098;11.582;2023-06-01T02:33:30;22.00;49.10
41644;DHT22;44236;48.098;11.582;2023-06-01T02:35:56;22.10;49.10
41644;DHT22;44236;48.098;11.582;2023-06-01T02:38:21;22.00;49.00
41644;DHT22;44236;48.098;11.582;2023-06-01T02:40:47;22.00;49.00
41644;DHT22;44236;48.098;11.582;2023-06-01T02:43:13;22.00;49.00
41644;DHT22;44236;48.098;11.582;2023-06-01T02:45:38;22.00;49.00
41644;DHT22;44236;48.098;11.582;2023-06-01T02:48:04;22.00;49.00
41644;DHT22;44236;48.098;11.582;2023-06-01T02:50:30;22.00;49.10
41644;DHT22;44236;48.098;11.582;2023-06-01T02:52:55;22.00;49.10
41644;DHT22;44236;48.098;11.582;2023-06-01T02:55:21;22.00;49.00
41644;DHT22;44236;48.098;11.582;2023-06-01T02:57:47;22.00;49.00
41644;DHT22;44236;48.098;11.582;2023-06-01T03:00:12;22.00;49.00
41644;DHT22;44236;48.098;11.582;2023-06-01T03:02:42;22.00;49.00
41644;DHT22;44236;48.098;11.582;2023-06-01T03:05:08;22.00;49.10
41644;DHT22;44236;48.098;11.582;2023-06-01T03:07:34;22.00;49.10
41644;DHT22;44236;48.098;11.582;2023-06-01T03:09:59;22.00;49.10
41644;DHT22;44236;48.098;11.582;2023-06-01T03:12:25;22.00;49.10
41644;DHT22;44236;48.098;11.582;2023-06-01T03:14:51;22.00;49.10
41644;DHT22;44236;48.098;11.582;2023-06-01T03:17:16;22.00;48.90
41644;DHT22;44236;48.098;11.582;2023-06-01T03:19:42;22.00;49.10
41644;DHT22;44236;48.098;11.582;2023-06-01T03:22:08;22.00;49.10
41644;DHT22;44236;48.098;11.582;2023-06-01T03:24:33;22.00;49.10
41644;DHT22;44236;48.098;11.582;2023-06-01T03:26:59;22.00;49.10
41644;DHT22;44236;48.098;11.582;2023-06-01T03:29:26;22.00;48.90
41644;DHT22;44236;48.098;11.582;2023-06-01T03:31:52;22.00;48.80
41644;DHT22;44236;48.098;11.582;2023-06-01T03:34:17;22.00;49.10
41644;DHT22;44236;48.098;11.582;2023-06-01T03:36:43;22.00;48.90
41644;DHT22;44236;48.098;11.582;2023-06-01T03:39:14;22.00;49.10
41644;DHT22;44236;48.098;11.582;2023-06-01T03:41:44;22.00;49.10
41644;DHT22;44236;48.098;11.582;2023-06-01T03:44:11;22.00;49.10
41644;DHT22;44236;48.098;11.582;2023-06-01T03:46:37;22.00;49.00
41644;DHT22;44236;48.098;11.582;2023-06-01T03:49:02;22.00;49.10
41644;DHT22;44236;48.098;11.582;2023-06-01T03:51:30;22.00;48.90
41644;DHT22;44236;48.098;11.582;2023-06-01T03:53:55;21.90;48.60
41644;DHT22;44236;48.098;11.582;2023-06-01T03:56:21;21.90;49.10
41644;DHT22;44236;48.098;11.582;2023-06-01T03:58:47;22.00;48.60
41644;DHT22;44236;48.098;11.582;2023-06-01T04:01:13;21.90;48.50
41644;DHT22;44236;48.098;11.582;2023-06-01T04:03:45;22.00;48.50
41644;DHT22;44236;48.098;11.582;2023-06-01T04:06:11;22.00;48.60
41644;DHT22;44236;48.098;11.582;2023-06-01T04:08:46;22.00;48.50
41644;DHT22;44236;48.098;11.582;2023-06-01T04:11:16;22.00;48.50
41644;DHT22;44236;48.098;11.582;2023-06-01T04:13:42;22.00;48.60
41644;DHT22;44236;48.098;11.582;2023-06-01T04:16:12;22.00;48.60
41644;DHT22;44236;48.098;11.582;2023-06-01T04:18:37;22.00;48.50
41644;DHT22;44236;48.098;11.582;2023-06-01T04:21:03;22.00;48.60
41644;DHT22;44236;48.098;11.582;2023-06-01T04:23:29;22.00;48.50
41644;DHT22;44236;48.098;11.582;2023-06-01T04:25:55;22.00;48.50
41644;DHT22;44236;48.098;11.582;2023-06-01T04:28:25;22.00;48.40
41644;DHT22;44236;48.098;11.582;2023-06-01T04:30:51;22.00;48.50
41644;DHT22;44236;48.098;11.582;2023-06-01T04:33:17;22.00;48.50
41644;DHT22;44236;48.098;11.582;2023-06-01T04:35:43;22.00;48.50
41644;DHT22;44236;48.098;11.582;2023-06-01T04:38:09;22.00;48.40
41644;DHT22;44236;48.098;11.582;2023-06-01T04:40:35;22.00;48.40
41644;DHT22;44236;48.098;11.582;2023-06-01T04:43:00;22.00;48.40
41644;DHT22;44236;48.098;11.582;2023-06-01T04:45:28;22.00;48.40
41644;DHT22;44236;48.098;11.582;2023-06-01T04:47:56;22.00;48.40
41644;DHT22;44236;48.098;11.582;2023-06-01T04:50:23;22.00;48.40
41644;DHT22;44236;48.098;11.582;2023-06-01T04:52:49;22.10;48.50
41644;DHT22;44236;48.098;11.582;2023-06-01T04:55:15;22.10;48.40
41644;DHT22;44236;48.098;11.582;2023-06-01T04:57:42;22.10;48.40
41644;DHT22;44236;48.098;11.582;2023-06-01T05:00:12;22.00;48.40
41644;DHT22;44236;48.098;11.582;2023-06-01T05:02:39;22.10;48.40
41644;DHT22;44236;48.098;11.582;2023-06-01T05:05:06;22.10;48.40
41644;DHT22;44236;48.098;11.582;2023-06-01T05:07:33;22.10;48.40
41644;DHT22;44236;48.098;11.582;2023-06-01T05:09:59;22.10;48.40
41644;DHT22;44236;48.098;11.582;2023-06-01T05:12:29;22.10;48.50
41644;DHT22;44236;48.098;11.582;2023-06-01T05:14:55;22.10;48.50
41644;DHT22;44236;48.098;11.582;2023-06-01T05:17:20;22.10;48.40
41644;DHT22;44236;48.098;11.582;2023-06-01T05:19:46;22.10;48.50
41644;DHT22;44236;48.098;11.582;2023-06-01T05:22:12;22.10;48.50
41644;DHT22;44236;48.098;11.582;2023-06-01T05:24:37;22.10;48.50
41644;DHT22;44236;48.098;11.582;2023-06-01T05:27:04;22.10;48.40
41644;DHT22;44236;48.098;11.582;2023-06-01T05:29:30;22.10;48.50
41644;DHT22;44236;48.098;11.582;2023-06-01T05:31:55;22.10;48.50
41644;DHT22;44236;48.098;11.582;2023-06-01T05:34:21;22.20;48.60
41644;DHT22;44236;48.098;11.582;2023-06-01T05:36:47;22.20;49.10
41644;DHT22;44236;48.098;11.582;2023-06-01T05:39:14;22.20;48.60
41644;DHT22;44236;48.098;11.582;2023-06-01T05:41:40;22.20;48.70
41644;DHT22;44236;48.098;11.582;2023-06-01T05:44:07;22.20;48.70
41644;DHT22;44236;48.098;11.582;2023-06-01T05:46:33;22.20;48.70
41644;DHT22;44236;48.098;11.582;2023-06-01T05:48:59;22.20;48.50
41644;DHT22;44236;48.098;11.582;2023-06-01T05:51:25;22.20;48.50
41644;DHT22;44236;48.098;11.582;2023-06-01T05:53:50;22.20;48.50
41644;DHT22;44236;48.098;11.582;2023-06-01T05:56:17;22.20;48.50
41644;DHT22;44236;48.098;11.582;2023-06-01T05:58:43;22.20;48.40
41644;DHT22;44236;48.098;11.582;2023-06-01T06:01:09;22.20;48.40
41644;DHT22;44236;48.098;11.582;2023-06-01T06:03:35;22.30;48.50
41644;DHT22;44236;48.098;11.582;2023-06-01T06:06:02;22.30;48.40
41644;DHT22;44236;48.098;11.582;2023-06-01T06:08:28;22.30;48.40
41644;DHT22;44236;48.098;11.582;2023-06-01T06:10:54;22.20;48.30
41644;DHT22;44236;48.098;11.582;2023-06-01T06:13:20;22.30;48.30
41644;DHT22;44236;48.098;11.582;2023-06-01T06:15:45;22.30;48.30
41644;DHT22;44236;48.098;11.582;2023-06-01T06:18:11;22.30;48.30
41644;DHT22;44236;48.098;11.582;2023-06-01T06:20:37;22.30;48.30
41644;DHT22;44236;48.098;11.582;2023-06-01T06:23:02;22.30;48.20
41644;DHT22;44236;48.098;11.582;2023-06-01T06:25:28;22.30;48.20
41644;DHT22;44236;48.098;11.582;2023-06-01T06:27:54;22.30;48.20
41644;DHT22;44236;48.098;11.582;2023-06-01T06:30:20;22.30;48.20
41644;DHT22;44236;48.098;11.582;2023-06-01T06:32:46;22.30;48.10
41644;DHT22;44236;48.098;11.582;2023-06-01T06:35:11;22.40;48.10
41644;DHT22;44236;48.098;11.582;2023-06-01T06:37:40;22.30;48.00
41644;DHT22;44236;48.098;11.582;2023-06-01T06:40:07;22.30;48.00
41644;DHT22;44236;48.098;11.582;2023-06-01T06:42:33;22.40;48.00
41644;DHT22;44236;48.098;11.582;2023-06-01T06:44:59;22.40;47.90
41644;DHT22;44236;48.098;11.582;2023-06-01T06:47:24;22.40;47.90
41644;DHT22;44236;48.098;11.582;2023-06-01T06:49:50;22.40;48.00
41644;DHT22;44236;48.098;11.582;2023-06-01T06:52:16;22.40;48.10
41644;DHT22;44236;48.098;11.582;2023-06-01T06:54:43;22.40;48.10
41644;DHT22;44236;48.098;11.582;2023-06-01T06:57:09;22.40;48.20
41644;DHT22;44236;48.098;11.582;2023-06-01T06:59:35;22.40;48.20
41644;DHT22;44236;48.098;11.582;2023-06-01T07:02:01;22.40;48.20
41644;DHT22;44236;48.098;11.582;2023-06-01T07:04:27;22.40;48.30
41644;DHT22;44236;48.098;11.582;2023-06-01T07:06:53;22.40;48.30
41644;DHT22;44236;48.098;11.582;2023-06-01T07:09:19;22.40;48.30
41644;DHT22;44236;48.098;11.582;2023-06-01T07:11:44;22.40;48.30
41644;DHT22;44236;48.098;11.582;2023-06-01T07:14:11;22.40;48.40
41644;DHT22;44236;48.098;11.582;2023-06-01T07:16:36;22.40;48.40
41644;DHT22;44236;48.098;11.582;2023-06-01T07:19:02;22.40;48.50
41644;DHT22;44236;48.098;11.582;2023-06-01T07:21:28;22.50;48.60
41644;DHT22;44236;48.098;11.582;2023-06-01T07:23:54;22.50;48.70
41644;DHT22;44236;48.098;11.582;2023-06-01T07:26:19;22.50;48.70
41644;DHT22;44236;48.098;11.582;2023-06-01T07:28:45;22.50;48.70
41644;DHT22;44236;48.098;11.582;2023-06-01T07:31:11;22.50;48.80
41644;DHT22;44236;48.098;11.582;2023-06-01T07:33:37;22.50;48.70
41644;DHT22;44236;48.098;11.582;2023-06-01T07:36:04;22.50;48.70
41644;DHT22;44236;48.098;11.582;2023-06-01T07:38:31;22.50;48.80
41644;DHT22;44236;48.098;11.582;2023-06-01T07:40:56;22.50;49.00
41644;DHT22;44236;48.098;11.582;2023-06-01T07:43:22;22.50;48.90
41644;DHT22;44236;48.098;11.582;2023-06-01T07:45:48;22.50;48.90
41644;DHT22;44236;48.098;11.582;2023-06-01T07:48:13;22.50;48.90
41644;DHT22;44236;48.098;11.582;2023-06-01T07:50:39;22.50;49.00
41644;DHT22;44236;48.098;11.582;2023-06-01T07:53:04;22.50;49.00
41644;DHT22;44236;48.098;11.582;2023-06-01T07:55:30;22.60;49.10
41644;DHT22;44236;48.098;11.582;2023-06-01T07:57:55;22.50;49.10
41644;DHT22;44236;48.098;11.582;2023-06-01T08:00:21;22.60;49.10
41644;DHT22;44236;48.098;11.582;2023-06-01T08:02:47;22.60;49.10
41644;DHT22;44236;48.098;11.582;2023-06-01T08:05:13;22.60;49.10
41644;DHT22;44236;48.098;11.582;2023-06-01T08:07:43;22.60;49.30
41644;DHT22;44236;48.098;11.582;2023-06-01T08:10:09;22.60;49.20
41644;DHT22;44236;48.098;11.582;2023-06-01T08:12:35;22.60;49.20
41644;DHT22;44236;48.098;11.582;2023-06-01T08:15:02;22.60;49.40
41644;DHT22;44236;48.098;11.582;2023-06-01T08:17:29;22.60;49.30
41644;DHT22;44236;48.098;11.582;2023-06-01T08:19:55;22.60;49.30
41644;DHT22;44236;48.098;11.582;2023-06-01T08:22:23;22.60;49.30
41644;DHT22;44236;48.098;11.582;2023-06-01T08:24:49;22.60;49.40
41644;DHT22;44236;48.098;11.582;2023-06-01T08:27:21;22.60;49.40
41644;DHT22;44236;48.098;11.582;2023-06-01T08:29:47;22.70;49.50
41644;DHT22;44236;48.098;11.582;2023-06-01T08:32:14;22.60;49.50
41644;DHT22;44236;48.098;11.582;2023-06-01T08:34:42;22.60;49.50
41644;DHT22;44236;48.098;11.582;2023-06-01T08:37:08;22.60;49.40
41644;DHT22;44236;48.098;11.582;2023-06-01T08:39:34;22.70;49.40
41644;DHT22;44236;48.098;11.582;2023-06-01T08:44:53;22.70;49.60
41644;DHT22;44236;48.098;11.582;2023-06-01T08:47:19;22.70;49.40
41644;DHT22;44236;48.098;11.582;2023-06-01T08:49:45;22.70;49.50
41644;DHT22;44236;48.098;11.582;2023-06-01T08:52:14;22.70;49.50
41644;DHT22;44236;48.098;11.582;2023-06-01T08:54:43;22.70;49.90
41644;DHT22;44236;48.098;11.582;2023-06-01T08:57:09;22.70;49.80
41644;DHT22;44236;48.098;11.582;2023-06-01T08:59:36;22.70;49.90
41644;DHT22;44236;48.098;11.582;2023-06-01T09:02:02;22.70;49.80
41644;DHT22;44236;48.098;11.582;2023-06-01T09:04:28;22.70;49.60
41644;DHT22;44236;48.098;11.582;2023-06-01T09:06:57;22.70;49.90
41644;DHT22;44236;48.098;11.582;2023-06-01T09:09:23;22.70;49.90
41644;DHT22;44236;48.098;11.582;2023-06-01T09:12:19;22.80;50.00
41644;DHT22;44236;48.098;11.582;2023-06-01T09:14:45;22.70;50.00
41644;DHT22;44236;48.098;11.582;2023-06-01T09:17:15;22.70;50.00
41644;DHT22;44236;48.098;11.582;2023-06-01T09:19:46;22.70;49.90
41644;DHT22;44236;48.098;11.582;2023-06-01T09:22:12;22.70;50.10
41644;DHT22;44236;48.098;11.582;2023-06-01T09:24:39;22.70;50.20
41644;DHT22;44236;48.098;11.582;2023-06-01T09:27:06;22.80;50.20
41644;DHT22;44236;48.098;11.582;2023-06-01T09:29:32;22.80;50.20
41644;DHT22;44236;48.098;11.582;2023-06-01T09:32:00;22.80;50.30
41644;DHT22;44236;48.098;11.582;2023-06-01T09:34:26;22.80;50.10
41644;DHT22;44236;48.098;11.582;2023-06-01T09:36:53;22.80;50.20
41644;DHT22;44236;48.098;11.582;2023-06-01T09:39:21;22.80;50.30
41644;DHT22;44236;48.098;11.582;2023-06-01T09:41:52;22.80;50.50
41644;DHT22;44236;48.098;11.582;2023-06-01T09:46:54;22.80;50.80
41644;DHT22;44236;48.098;11.582;2023-06-01T09:49:25;22.90;50.40
41644;DHT22;44236;48.098;11.582;2023-06-01T09:51:53;22.90;50.40
41644;DHT22;44236;48.098;11.582;2023-06-01T09:54:26;22.90;50.40
41644;DHT22;44236;48.098;11.582;2023-06-01T09:56:53;22.90;50.40
41644;DHT22;44236;48.098;11.582;2023-06-01T09:59:21;22.90;50.40
41644;DHT22;44236;48.098;11.582;2023-06-01T10:01:52;22.90;50.40
41644;DHT22;44236;48.098;11.582;2023-06-01T10:04:26;22.90;50.40
41644;DHT22;44236;48.098;11.582;2023-06-01T10:06:55;22.90;50.50
41644;DHT22;44236;48.098;11.582;2023-06-01T10:09:25;22.90;50.40
41644;DHT22;44236;48.098;11.582;2023-06-01T10:11:53;22.90;50.50
41644;DHT22;44236;48.098;11.582;2023-06-01T10:14:21;22.90;50.50
41644;DHT22;44236;48.098;11.582;2023-06-01T10:16:52;22.90;50.60
41644;DHT22;44236;48.098;11.582;2023-06-01T10:19:19;22.90;50.60
41644;DHT22;44236;48.098;11.582;2023-06-01T10:21:45;22.90;50.50
41644;DHT22;44236;48.098;11.582;2023-06-01T10:24:18;22.90;50.60
41644;DHT22;44236;48.098;11.582;2023-06-01T10:29:41;22.90;50.60
41644;DHT22;44236;48.098;11.582;2023-06-01T10:35:08;22.90;50.60
41644;DHT22;44236;48.098;11.582;2023-06-01T10:37:36;22.90;50.60
41644;DHT22;44236;48.098;11.582;2023-06-01T10:40:19;23.00;50.70
41644;DHT22;44236;48.098;11.582;2023-06-01T10:42:49;23.00;50.80
41644;DHT22;44236;48.098;11.582;2023-06-01T10:48:02;23.00;50.70
41644;DHT22;44236;48.098;11.582;2023-06-01T10:50:28;23.00;50.70
41644;DHT22;44236;48.098;11.582;2023-06-01T10:52:55;23.00;50.60
41644;DHT22;44236;48.098;11.582;2023-06-01T10:55:27;23.00;50.70
41644;DHT22;44236;48.098;11.582;2023-06-01T10:58:19;23.00;50.70
41644;DHT22;44236;48.098;11.582;2023-06-01T11:00:46;23.00;50.80
41644;DHT22;44236;48.098;11.582;2023-06-01T11:03:12;23.00;51.30
41644;DHT22;44236;48.098;11.582;2023-06-01T11:05:48;23.00;50.70
41644;DHT22;44236;48.098;11.582;2023-06-01T11:13:17;23.00;50.80
41644;DHT22;44236;48.098;11.582;2023-06-01T11:21:25;23.10;50.80
41644;DHT22;44236;48.098;11.582;2023-06-01T11:23:52;23.10;50.90
41644;DHT22;44236;48.098;11.582;2023-06-01T11:26:20;23.10;50.90
41644;DHT22;44236;48.098;11.582;2023-06-01T11:28:47;23.10;50.90
41644;DHT22;44236;48.098;11.582;2023-06-01T11:31:15;23.10;50.90
41644;DHT22;44236;48.098;11.582;2023-06-01T11:33:52;23.10;50.80
41644;DHT22;44236;48.098;11.582;2023-06-01T11:36:19;23.10;50.80
41644;DHT22;44236;48.098;11.582;2023-06-01T11:38:49;23.10;50.80
41644;DHT22;44236;48.098;11.582;2023-06-01T11:41:16;23.10;50.80
41644;DHT22;44236;48.098;11.582;2023-06-01T11:43:41;23.10;50.80
41644;DHT22;44236;48.098;11.582;2023-06-01T11:46:08;23.10;50.90
41644;DHT22;44236;48.098;11.582;2023-06-01T11:48:37;23.10;51.00
41644;DHT22;44236;48.098;11.582;2023-06-01T11:51:03;23.20;50.90
41644;DHT22;44236;48.098;11.582;2023-06-01T11:53:30;23.20;50.90
41644;DHT22;44236;48.098;11.582;2023-06-01T11:55:58;23.20;50.90
41644;DHT22;44236;48.098;11.582;2023-06-01T11:58:24;23.20;50.90
41644;DHT22;44236;48.098;11.582;2023-06-01T12:00:50;23.20;51.10
41644;DHT22;44236;48.098;11.582;2023-06-01T12:03:16;23.20;51.00
41644;DHT22;44236;48.098;11.582;2023-06-01T12:05:45;23.20;51.00
41644;DHT22;44236;48.098;11.582;2023-06-01T12:10:45;23.20;50.90
41644;DHT22;44236;48.098;11.582;2023-06-01T12:13:16;23.20;50.90
41644;DHT22;44236;48.098;11.582;2023-06-01T12:15:42;23.20;51.00
41644;DHT22;44236;48.098;11.582;2023-06-01T12:18:08;23.20;50.90
41644;DHT22;44236;48.098;11.582;2023-06-01T12:20:37;23.20;51.00
41644;DHT22;44236;48.098;11.582;2023-06-01T12:23:17;23.20;50.90
41644;DHT22;44236;48.098;11.582;2023-06-01T12:25:55;23.20;50.80
41644;DHT22;44236;48.098;11.582;2023-06-01T12:28:23;23.20;50.90
41644;DHT22;44236;48.098;11.582;2023-06-01T12:31:10;23.20;50.90
41644;DHT22;44236;48.098;11.582;2023-06-01T12:33:38;23.20;50.80
41644;DHT22;44236;48.098;11.582;2023-06-01T12:36:05;23.20;50.80
41644;DHT22;44236;48.098;11.582;2023-06-01T12:38:35;23.20;50.80
41644;DHT22;44236;48.098;11.582;2023-06-01T12:41:08;23.30;50.90
41644;DHT22;44236;48.098;11.582;2023-06-01T12:43:36;23.30;50.90
41644;DHT22;44236;48.098;11.582;2023-06-01T12:46:03;23.30;50.90
41644;DHT22;44236;48.098;11.582;2023-06-01T12:48:36;23.30;50.90
41644;DHT22;44236;48.098;11.582;2023-06-01T12:51:03;23.30;50.80
41644;DHT22;44236;48.098;11.582;2023-06-01T12:53:29;23.30;50.90
41644;DHT22;44236;48.098;11.582;2023-06-01T12:55:55;23.30;50.90
41644;DHT22;44236;48.098;11.582;2023-06-01T12:58:21;23.30;50.90
41644;DHT22;44236;48.098;11.582;2023-06-01T13:00:47;23.30;50.90
41644;DHT22;44236;48.098;11.582;2023-06-01T13:03:14;23.30;50.90
41644;DHT22;44236;48.098;11.582;2023-06-01T13:05:43;23.30;50.90
41644;DHT22;44236;48.098;11.582;2023-06-01T13:08:15;23.30;50.90
41644;DHT22;44236;48.098;11.582;2023-06-01T13:10:41;23.30;50.90
41644;DHT22;44236;48.098;11.582;2023-06-01T13:13:07;23.30;50.80
41644;DHT22;44236;48.098;11.582;2023-06-01T13:15:33;23.30;51.10
41644;DHT22;44236;48.098;11.582;2023-06-01T13:17:59;23.30;50.90
41644;DHT22;44236;48.098;11.582;2023-06-01T13:20:25;23.30;50.90
41644;DHT22;44236;48.098;11.582;2023-06-01T13:22:51;23.30;50.90
41644;DHT22;44236;48.098;11.582;2023-06-01T13:25:18;23.30;50.90
41644;DHT22;44236;48.098;11.582;2023-06-01T13:27:45;23.30;50.80
41644;DHT22;44236;48.098;11.582;2023-06-01T13:30:11;23.30;50.80
41644;DHT22;44236;48.098;11.582;2023-06-01T13:32:37;23.30;51.00
41644;DHT22;44236;48.098;11.582;2023-06-01T13:35:03;23.30;50.80
41644;DHT22;44236;48.098;11.582;2023-06-01T13:37:29;23.30;50.90
41644;DHT22;44236;48.098;11.582;2023-06-01T13:39:54;23.30;50.80
41644;DHT22;44236;48.098;11.582;2023-06-01T13:42:20;23.40;50.90
41644;DHT22;44236;48.098;11.582;2023-06-01T13:44:46;23.40;51.00
41644;DHT22;44236;48.098;11.582;2023-06-01T13:47:16;23.40;50.90
41644;DHT22;44236;48.098;11.582;2023-06-01T13:49:42;23.30;51.10
41644;DHT22;44236;48.098;11.582;2023-06-01T13:52:09;23.40;51.20
41644;DHT22;44236;48.098;11.582;2023-06-01T13:54:35;23.40;51.00
41644;DHT22;44236;48.098;11.582;2023-06-01T13:57:01;23.40;51.10
41644;DHT22;44236;48.098;11.582;2023-06-01T13:59:31;23.40;51.00
41644;DHT22;44236;48.098;11.582;2023-06-01T14:01:57;23.40;51.10
41644;DHT22;44236;48.098;11.582;2023-06-01T14:04:23;23.40;50.90
41644;DHT22;44236;48.098;11.582;2023-06-01T14:06:48;23.40;51.10
41644;DHT22;44236;48.098;11.582;2023-06-01T14:09:16;23.40;50.90
41644;DHT22;44236;48.098;11.582;2023-06-01T14:11:42;23.40;51.40
41644;DHT22;44236;48.098;11.582;2023-06-01T14:14:07;23.40;51.00
41644;DHT22;44236;48.098;11.582;2023-06-01T14:16:36;23.40;50.90
41644;DHT22;44236;48.098;11.582;2023-06-01T14:19:02;23.40;50.90
41644;DHT22;44236;48.098;11.582;2023-06-01T14:21:28;23.40;51.00
41644;DHT22;44236;48.098;11.582;2023-06-01T14:24:00;23.40;50.90
41644;DHT22;44236;48.098;11.582;2023-06-01T14:26:26;23.40;50.90
41644;DHT22;44236;48.098;11.582;2023-06-01T14:28:52;23.40;50.90
41644;DHT22;44236;48.098;11.582;2023-06-01T14:31:18;23.40;51.10
41644;DHT22;44236;48.098;11.582;2023-06-01T14:33:45;23.40;50.90
41644;DHT22;44236;48.098;11.582;2023-06-01T14:36:11;23.40;50.90
41644;DHT22;44236;48.098;11.582;2023-06-01T14:38:37;23.40;50.90
41644;DHT22;44236;48.098;11.582;2023-06-01T14:41:02;23.40;51.00
41644;DHT22;44236;48.098;11.582;2023-06-01T14:43:28;23.40;50.90
41644;DHT22;44236;48.098;11.582;2023-06-01T14:45:56;23.40;50.90
41644;DHT22;44236;48.098;11.582;2023-06-01T14:48:21;23.40;50.90
41644;DHT22;44236;48.098;11.582;2023-06-01T14:50:47;23.40;50.90
41644;DHT22;44236;48.098;11.582;2023-06-01T14:53:13;23.40;50.90
41644;DHT22;44236;48.098;11.582;2023-06-01T14:55:41;23.40;50.90
41644;DHT22;44236;48.098;11.582;2023-06-01T14:58:08;23.40;50.90
41644;DHT22;44236;48.098;11.582;2023-06-01T15:00:34;23.40;50.90
41644;DHT22;44236;48.098;11.582;2023-06-01T15:03:00;23.50;51.00
41644;DHT22;44236;48.098;11.582;2023-06-01T15:05:27;23.40;50.90
41644;DHT22;44236;48.098;11.582;2023-06-01T15:07:52;23.40;50.90
41644;DHT22;44236;48.098;11.582;2023-06-01T15:10:18;23.40;50.90
41644;DHT22;44236;48.098;11.582;2023-06-01T15:12:44;23.40;50.90
41644;DHT22;44236;48.098;11.582;2023-06-01T15:15:10;23.40;50.90
41644;DHT22;44236;48.098;11.582;2023-06-01T15:17:35;23.40;50.90
41644;DHT22;44236;48.098;11.582;2023-06-01T15:20:01;23.50;51.00
41644;DHT22;44236;48.098;11.582;2023-06-01T15:22:27;23.50;51.00
41644;DHT22;44236;48.098;11.582;2023-06-01T15:24:53;23.50;51.00
41644;DHT22;44236;48.098;11.582;2023-06-01T15:27:18;23.50;51.00
41644;DHT22;44236;48.098;11.582;2023-06-01T15:29:45;23.50;51.00
41644;DHT22;44236;48.098;11.582;2023-06-01T15:32:13;23.50;51.00
41644;DHT22;44236;48.098;11.582;2023-06-01T15:34:38;23.50;51.00
41644;DHT22;44236;48.098;11.582;2023-06-01T15:37:07;23.50;51.00
41644;DHT22;44236;48.098;11.582;2023-06-01T15:39:34;23.50;51.00
41644;DHT22;44236;48.098;11.582;2023-06-01T15:42:03;23.50;51.00
41644;DHT22;44236;48.098;11.582;2023-06-01T15:44:29;23.50;51.00
41644;DHT22;44236;48.098;11.582;2023-06-01T15:46:54;23.50;51.00
41644;DHT22;44236;48.098;11.582;2023-06-01T15:49:20;23.50;51.00
41644;DHT22;44236;48.098;11.582;2023-06-01T15:51:48;23.50;51.00